Time;durP1;ratioP1;P1;durP2;ratioP2;P2;SDS_P1;SDS_P2;PMS_P1;PMS_P2;Temp;Humidity;BMP_temperature;BMP_pressure;BME280_temperature;BME280_humidity;BME280_pressure;Samples;Min_cycle;Max_cycle;Signal;HPM_P1;HPM_P2
2022/10/22 00:00:31;;;;;;;;;;;26.00;99.90;;;;;;5035199;28;19913;-77
2022/10/22 00:02:58;;;;;;;;;;;25.90;99.90;;;;;;5039048;28;19914;-72
2022/10/22 00:05:25;;;;;;;;;;;26.20;99.90;;;;;;5032724;28;19917;-77
2022/10/22 00:07:51;;;;;;;;;;;26.60;99.90;;;;;;5033370;28;19967;-77
2022/10/22 00:10:18;;;;;;;;;;;26.70;99.90;;;;;;5032503;28;20000;-76
2022/10/22 00:12:45;;;;;;;;;;;26.50;99.90;;;;;;5045203;28;19966;-72
2022/10/22 00:15:11;;;;;;;;;;;26.70;99.90;;;;;;5052610;28;19995;-77
2022/10/22 00:17:38;;;;;;;;;;;27.40;99.90;;;;;;5040927;28;20322;-75
2022/10/22 00:20:05;;;;;;;;;;;27.40;99.70;;;;;;5051692;28;19913;-78
2022/10/22 00:22:32;;;;;;;;;;;27.20;99.10;;;;;;5043001;28;19917;-75
2022/10/22 00:24:58;;;;;;;;;;;27.00;99.50;;;;;;5050500;28;19981;-76
2022/10/22 00:27:25;;;;;;;;;;;27.10;99.90;;;;;;5047690;28;19920;-74
2022/10/22 00:29:52;;;;;;;;;;;27.30;98.80;;;;;;5052138;28;19913;-77
2022/10/22 00:32:18;;;;;;;;;;;27.10;99.20;;;;;;5044832;28;19966;-78
2022/10/22 00:34:45;;;;;;;;;;;27.20;99.50;;;;;;5032792;28;20003;-76
2022/10/22 00:37:12;;;;;;;;;;;27.40;98.90;;;;;;5048249;28;19921;-78
2022/10/22 00:39:38;;;;;;;;;;;27.90;99.60;;;;;;5051023;28;20006;-79
2022/10/22 00:42:05;;;;;;;;;;;28.30;98.40;;;;;;5049090;28;20748;-76
2022/10/22 00:44:50;;;;;;;;;;;28.50;97.40;;;;;;5052069;28;20373;-76
2022/10/22 00:47:17;;;;;;;;;;;28.80;97.60;;;;;;5044674;28;19909;-78
2022/10/22 00:49:45;;;;;;;;;;;28.90;97.00;;;;;;5032210;28;19920;-77
2022/10/22 00:52:12;;;;;;;;;;;28.90;96.40;;;;;;5033629;28;19959;-77
2022/10/22 00:54:40;;;;;;;;;;;28.70;96.50;;;;;;5033200;28;20008;-77
2022/10/22 00:57:06;;;;;;;;;;;28.60;97.10;;;;;;5047430;28;19928;-78
2022/10/22 00:59:34;;;;;;;;;;;28.80;96.90;;;;;;5051168;28;19921;-75
2022/10/22 01:02:00;;;;;;;;;;;28.70;96.90;;;;;;5047068;28;19955;-77
2022/10/22 01:04:27;;;;;;;;;;;28.90;96.30;;;;;;5043981;28;20008;-77
2022/10/22 01:06:54;;;;;;;;;;;28.80;96.40;;;;;;5045184;28;20003;-76
2022/10/22 01:09:21;;;;;;;;;;;28.60;96.30;;;;;;5051743;28;19966;-78
2022/10/22 01:11:56;;;;;;;;;;;28.40;96.60;;;;;;5048837;28;19916;-76
2022/10/22 01:14:43;;;;;;;;;;;28.10;96.90;;;;;;5039103;28;19955;-76
2022/10/22 01:17:30;;;;;;;;;;;28.00;97.30;;;;;;5045389;28;20363;-79
2022/10/22 01:20:11;;;;;;;;;;;27.90;97.30;;;;;;5033833;28;19910;-77
2022/10/22 01:22:44;;;;;;;;;;;27.60;97.50;;;;;;5041681;28;19919;-78
2022/10/22 01:25:11;;;;;;;;;;;27.90;97.40;;;;;;5051206;28;19921;-78
2022/10/22 01:27:41;;;;;;;;;;;28.40;97.30;;;;;;5042398;28;19913;-76
2022/10/22 01:30:09;;;;;;;;;;;28.70;96.90;;;;;;5054377;28;20330;-78
2022/10/22 01:32:42;;;;;;;;;;;29.20;96.40;;;;;;5052891;28;19917;-78
2022/10/22 01:35:11;;;;;;;;;;;29.50;96.90;;;;;;5048799;28;20260;-75
2022/10/22 01:37:42;;;;;;;;;;;29.40;95.90;;;;;;5052172;28;19913;-75
2022/10/22 01:40:09;;;;;;;;;;;29.00;96.40;;;;;;5055166;28;20310;-76
2022/10/22 01:42:36;;;;;;;;;;;28.60;96.00;;;;;;5045627;28;19944;-77
2022/10/22 01:45:09;;;;;;;;;;;28.30;96.90;;;;;;5037774;28;20330;-77
2022/10/22 01:47:46;;;;;;;;;;;28.10;97.00;;;;;;5048163;28;20007;-77
2022/10/22 01:50:26;;;;;;;;;;;27.80;97.10;;;;;;5055869;28;19908;-77
2022/10/22 01:52:55;;;;;;;;;;;27.50;97.40;;;;;;5053332;28;19913;-79
2022/10/22 01:55:25;;;;;;;;;;;27.20;97.90;;;;;;5055076;28;19948;-81
2022/10/22 01:58:00;;;;;;;;;;;27.20;98.00;;;;;;5052903;28;19963;-79
2022/10/22 02:00:27;;;;;;;;;;;27.30;98.30;;;;;;5054388;28;19962;-80
2022/10/22 02:03:04;;;;;;;;;;;27.10;97.60;;;;;;5042840;28;20425;-78
2022/10/22 02:05:30;;;;;;;;;;;26.90;98.00;;;;;;5046117;28;20020;-81
2022/10/22 02:08:01;;;;;;;;;;;26.80;98.30;;;;;;5043868;28;20011;-77
2022/10/22 02:10:29;;;;;;;;;;;26.80;98.40;;;;;;5054235;28;19925;-80
2022/10/22 02:12:56;;;;;;;;;;;26.90;98.70;;;;;;5042064;28;20425;-78
2022/10/22 02:15:25;;;;;;;;;;;26.80;98.70;;;;;;5034734;28;19909;-78
2022/10/22 02:17:52;;;;;;;;;;;26.70;98.50;;;;;;5038764;28;19921;-76
2022/10/22 02:20:22;;;;;;;;;;;26.60;98.90;;;;;;5054785;28;19916;-76
2022/10/22 02:22:49;;;;;;;;;;;26.40;98.90;;;;;;5043257;28;19916;-77
2022/10/22 02:25:16;;;;;;;;;;;26.20;99.10;;;;;;5038223;28;19924;-80
2022/10/22 02:28:05;;;;;;;;;;;25.90;99.30;;;;;;5044864;28;19913;-79
2022/10/22 02:30:33;;;;;;;;;;;25.70;99.90;;;;;;5029142;28;19924;-79
2022/10/22 02:33:14;;;;;;;;;;;25.60;99.90;;;;;;5035348;28;19998;-79
2022/10/22 02:35:42;;;;;;;;;;;25.50;99.90;;;;;;5034480;28;19916;-77
2022/10/22 02:38:09;;;;;;;;;;;25.40;99.90;;;;;;5043857;28;19917;-79
2022/10/22 02:40:36;;;;;;;;;;;25.40;99.90;;;;;;5052664;28;19967;-77
2022/10/22 02:43:06;;;;;;;;;;;25.30;99.90;;;;;;5044245;28;19920;-77
2022/10/22 02:45:33;;;;;;;;;;;25.10;99.90;;;;;;5052933;28;19923;-78
2022/10/22 02:48:01;;;;;;;;;;;24.80;99.90;;;;;;5041023;28;19998;-78
2022/10/22 02:50:28;;;;;;;;;;;24.50;99.90;;;;;;5052333;28;19920;-78
2022/10/22 02:52:54;;;;;;;;;;;24.10;99.90;;;;;;5042620;28;19917;-79
2022/10/22 02:55:21;;;;;;;;;;;23.60;99.90;;;;;;5049472;28;19913;-81
2022/10/22 02:57:47;;;;;;;;;;;23.10;99.90;;;;;;5036417;28;19913;-82
2022/10/22 03:00:14;;;;;;;;;;;22.60;99.90;;;;;;5052015;28;19917;-75
2022/10/22 03:02:41;;;;;;;;;;;22.20;99.90;;;;;;5052394;28;20367;-80
2022/10/22 03:05:08;;;;;;;;;;;21.90;99.90;;;;;;5053681;28;20402;-78
2022/10/22 03:07:35;;;;;;;;;;;21.70;99.90;;;;;;5044595;28;19956;-79
2022/10/22 03:10:01;;;;;;;;;;;21.60;99.90;;;;;;5048777;28;19916;-80
2022/10/22 03:12:28;;;;;;;;;;;21.60;99.90;;;;;;5051967;28;19913;-80
2022/10/22 03:14:55;;;;;;;;;;;21.60;99.90;;;;;;5054243;28;20339;-80
2022/10/22 03:17:21;;;;;;;;;;;21.70;99.90;;;;;;5046286;28;20379;-71
2022/10/22 03:19:48;;;;;;;;;;;21.80;99.90;;;;;;5048407;28;20409;-70
2022/10/22 03:22:22;;;;;;;;;;;21.70;99.90;;;;;;5046927;28;19919;-70
2022/10/22 03:24:51;;;;;;;;;;;21.60;99.90;;;;;;5045162;28;19975;-70
2022/10/22 03:27:19;;;;;;;;;;;21.50;99.90;;;;;;5046469;28;20364;-71
2022/10/22 03:29:46;;;;;;;;;;;21.60;99.90;;;;;;5044973;28;20438;-70
2022/10/22 03:32:13;;;;;;;;;;;21.80;99.90;;;;;;5047050;28;20039;-74
2022/10/22 03:34:39;;;;;;;;;;;21.90;99.90;;;;;;5033387;28;19916;-71
2022/10/22 03:37:06;;;;;;;;;;;22.20;99.90;;;;;;5044156;28;19952;-73
2022/10/22 03:39:34;;;;;;;;;;;22.50;99.90;;;;;;5042636;28;19955;-77
2022/10/22 03:42:01;;;;;;;;;;;22.70;99.90;;;;;;5048069;28;19917;-80
2022/10/22 03:44:29;;;;;;;;;;;23.00;99.90;;;;;;5038220;28;19933;-71
2022/10/22 03:46:55;;;;;;;;;;;23.30;99.90;;;;;;5048861;28;19963;-78
2022/10/22 03:49:22;;;;;;;;;;;23.60;99.90;;;;;;5039008;28;19923;-78
2022/10/22 03:51:49;;;;;;;;;;;24.00;99.90;;;;;;5051228;28;20370;-73
2022/10/22 03:54:16;;;;;;;;;;;24.40;99.90;;;;;;5052374;28;20004;-73
2022/10/22 03:56:42;;;;;;;;;;;24.60;99.90;;;;;;5052059;28;20000;-80
2022/10/22 03:59:09;;;;;;;;;;;25.00;99.90;;;;;;5046796;28;19913;-75
2022/10/22 04:01:36;;;;;;;;;;;25.50;99.90;;;;;;5040361;28;20031;-72
2022/10/22 04:04:02;;;;;;;;;;;26.00;99.90;;;;;;5037510;28;19920;-73
2022/10/22 04:06:29;;;;;;;;;;;26.20;99.90;;;;;;5034657;28;19913;-75
2022/10/22 04:08:56;;;;;;;;;;;26.60;99.90;;;;;;5037764;28;20006;-71
2022/10/22 04:11:23;;;;;;;;;;;26.90;99.90;;;;;;5052069;28;20379;-71
2022/10/22 04:13:49;;;;;;;;;;;27.10;99.90;;;;;;5033120;28;19920;-73
2022/10/22 04:16:18;;;;;;;;;;;27.40;99.90;;;;;;5033308;28;19909;-74
2022/10/22 04:18:46;;;;;;;;;;;27.70;99.90;;;;;;5050424;28;19920;-72
2022/10/22 04:21:14;;;;;;;;;;;27.80;99.90;;;;;;5053307;28;19931;-71
2022/10/22 04:23:48;;;;;;;;;;;27.80;99.90;;;;;;5035353;28;19988;-73
2022/10/22 04:26:15;;;;;;;;;;;27.80;99.90;;;;;;5052225;28;19924;-74
2022/10/22 04:28:42;;;;;;;;;;;27.90;99.90;;;;;;5051060;28;19924;-75
2022/10/22 04:31:09;;;;;;;;;;;27.70;99.90;;;;;;5052479;28;20480;-73
2022/10/22 04:33:36;;;;;;;;;;;27.50;99.90;;;;;;5041497;28;19935;-72
2022/10/22 04:36:07;;;;;;;;;;;27.20;99.90;;;;;;5048453;28;19935;-72
2022/10/22 04:38:34;;;;;;;;;;;27.00;99.90;;;;;;5034883;28;19924;-72
2022/10/22 04:41:10;;;;;;;;;;;26.80;99.90;;;;;;5051081;28;20371;-72
2022/10/22 04:43:36;;;;;;;;;;;26.80;99.90;;;;;;5033865;28;19975;-71
2022/10/22 04:46:03;;;;;;;;;;;26.70;99.90;;;;;;5051339;28;19908;-71
2022/10/22 04:48:30;;;;;;;;;;;26.60;99.90;;;;;;5034677;28;19941;-71
2022/10/22 04:50:58;;;;;;;;;;;26.60;99.90;;;;;;5051316;28;19916;-71
2022/10/22 04:53:24;;;;;;;;;;;26.60;99.90;;;;;;5035362;28;19932;-72
2022/10/22 04:55:51;;;;;;;;;;;26.60;99.90;;;;;;5031641;28;19910;-73
2022/10/22 04:58:17;;;;;;;;;;;26.70;99.90;;;;;;5047419;28;19920;-72
2022/10/22 05:00:44;;;;;;;;;;;26.70;99.60;;;;;;5048763;28;19921;-72
2022/10/22 05:03:11;;;;;;;;;;;26.80;99.20;;;;;;5048687;28;19912;-72
2022/10/22 05:05:37;;;;;;;;;;;26.90;99.00;;;;;;5038371;28;19971;-71
2022/10/22 05:08:04;;;;;;;;;;;26.90;99.20;;;;;;5048270;28;19963;-71
2022/10/22 05:10:31;;;;;;;;;;;26.80;99.60;;;;;;5055366;28;20325;-71
2022/10/22 05:12:57;;;;;;;;;;;26.80;99.90;;;;;;5043095;28;20303;-72
2022/10/22 05:15:24;;;;;;;;;;;26.80;99.90;;;;;;5035920;28;19920;-71
2022/10/22 05:17:51;;;;;;;;;;;26.80;99.50;;;;;;5047218;28;19958;-71
2022/10/22 05:20:17;;;;;;;;;;;26.80;99.90;;;;;;5054770;28;20387;-73
2022/10/22 05:22:44;;;;;;;;;;;26.80;99.90;;;;;;5044864;28;19928;-71
2022/10/22 05:25:11;;;;;;;;;;;26.80;99.50;;;;;;5035331;28;20031;-71
2022/10/22 05:27:37;;;;;;;;;;;26.80;99.30;;;;;;5045531;28;19967;-71
2022/10/22 05:30:05;;;;;;;;;;;26.70;99.40;;;;;;5051995;28;19979;-72
2022/10/22 05:32:33;;;;;;;;;;;26.80;99.10;;;;;;5048198;28;20359;-72
2022/10/22 05:35:00;;;;;;;;;;;26.90;98.70;;;;;;5053773;28;19912;-75
2022/10/22 05:37:27;;;;;;;;;;;27.00;98.00;;;;;;5051784;28;20013;-72
2022/10/22 05:39:53;;;;;;;;;;;27.20;98.80;;;;;;5054885;28;19913;-73
2022/10/22 05:42:20;;;;;;;;;;;27.40;97.90;;;;;;5048017;28;19913;-72
2022/10/22 05:44:47;;;;;;;;;;;27.40;98.10;;;;;;5035520;28;20374;-72
2022/10/22 05:47:14;;;;;;;;;;;27.30;98.20;;;;;;5036384;28;19925;-72
2022/10/22 05:49:41;;;;;;;;;;;27.20;98.10;;;;;;5040863;28;20413;-78
2022/10/22 05:52:07;;;;;;;;;;;27.10;97.90;;;;;;5052544;28;19959;-78
2022/10/22 05:54:34;;;;;;;;;;;27.10;97.90;;;;;;5054369;28;19913;-79
2022/10/22 05:57:00;;;;;;;;;;;27.10;97.90;;;;;;5050659;28;19913;-78
2022/10/22 05:59:27;;;;;;;;;;;27.10;97.80;;;;;;5042888;28;20371;-81
2022/10/22 06:01:54;;;;;;;;;;;27.10;97.80;;;;;;5050997;28;19917;-81
2022/10/22 06:04:21;;;;;;;;;;;27.10;98.00;;;;;;5041990;28;20302;-76
2022/10/22 06:06:52;;;;;;;;;;;27.00;97.70;;;;;;5052056;28;20435;-78
2022/10/22 06:09:20;;;;;;;;;;;26.90;97.50;;;;;;5043876;28;20279;-76
2022/10/22 06:11:47;;;;;;;;;;;26.80;97.20;;;;;;5050894;28;19917;-79
2022/10/22 06:14:14;;;;;;;;;;;26.60;97.20;;;;;;5035192;28;20003;-77
2022/10/22 06:16:42;;;;;;;;;;;26.60;98.00;;;;;;5034959;28;19971;-75
2022/10/22 06:19:10;;;;;;;;;;;26.50;98.30;;;;;;5054513;28;19917;-77
2022/10/22 06:21:37;;;;;;;;;;;26.40;98.20;;;;;;5052711;28;20302;-76
2022/10/22 06:24:03;;;;;;;;;;;26.30;99.90;;;;;;5034594;28;20356;-77
2022/10/22 06:26:30;;;;;;;;;;;26.30;99.90;;;;;;5052867;28;19928;-76
2022/10/22 06:28:57;;;;;;;;;;;26.10;99.90;;;;;;5049314;28;19999;-76
2022/10/22 06:31:24;;;;;;;;;;;26.00;99.90;;;;;;5049410;28;20272;-76
2022/10/22 06:33:51;;;;;;;;;;;25.80;99.90;;;;;;5053336;28;19948;-78
2022/10/22 06:36:20;;;;;;;;;;;25.70;99.90;;;;;;5046876;28;19916;-74
2022/10/22 06:38:47;;;;;;;;;;;25.70;99.90;;;;;;5052657;28;19917;-76
2022/10/22 06:41:15;;;;;;;;;;;25.70;99.90;;;;;;5051850;28;20031;-74
2022/10/22 06:43:48;;;;;;;;;;;25.70;99.90;;;;;;5044260;28;19920;-77
2022/10/22 06:46:17;;;;;;;;;;;25.70;99.90;;;;;;5053732;28;19947;-75
2022/10/22 06:48:48;;;;;;;;;;;25.60;99.90;;;;;;5035178;28;19955;-72
2022/10/22 06:51:14;;;;;;;;;;;25.50;99.90;;;;;;5048916;28;19936;-78
2022/10/22 06:53:41;;;;;;;;;;;25.40;99.90;;;;;;5035550;28;20062;-79
2022/10/22 06:56:12;;;;;;;;;;;25.20;99.90;;;;;;5034878;28;19910;-79
2022/10/22 06:58:39;;;;;;;;;;;25.20;99.90;;;;;;5034978;28;19920;-78
2022/10/22 07:01:07;;;;;;;;;;;25.00;99.90;;;;;;5046324;28;19913;-70
2022/10/22 07:03:34;;;;;;;;;;;25.00;99.90;;;;;;5036197;28;20384;-74
2022/10/22 07:06:01;;;;;;;;;;;24.90;99.90;;;;;;5033762;28;19909;-80
2022/10/22 07:08:28;;;;;;;;;;;24.80;99.90;;;;;;5034622;28;20356;-75
2022/10/22 07:10:55;;;;;;;;;;;24.70;99.90;;;;;;5049477;28;19919;-79
2022/10/22 07:13:22;;;;;;;;;;;24.60;99.90;;;;;;5037751;28;19937;-79
2022/10/22 07:15:53;;;;;;;;;;;24.50;99.90;;;;;;5042309;28;19913;-78
2022/10/22 07:18:21;;;;;;;;;;;24.40;99.90;;;;;;5048876;28;19916;-78
2022/10/22 07:20:48;;;;;;;;;;;24.30;99.90;;;;;;5052659;28;19909;-79
2022/10/22 07:23:14;;;;;;;;;;;24.30;99.90;;;;;;5052396;28;20437;-78
2022/10/22 07:25:41;;;;;;;;;;;24.20;99.90;;;;;;5043558;28;19928;-80
2022/10/22 07:28:08;;;;;;;;;;;24.20;99.90;;;;;;5038735;28;20050;-79
2022/10/22 07:30:35;;;;;;;;;;;24.10;99.90;;;;;;5043337;28;19983;-74
2022/10/22 07:33:02;;;;;;;;;;;24.10;99.90;;;;;;5038581;28;19948;-77
2022/10/22 07:35:29;;;;;;;;;;;24.10;99.90;;;;;;5048587;28;20283;-77
2022/10/22 07:37:56;;;;;;;;;;;24.00;99.90;;;;;;5042258;28;19917;-80
2022/10/22 07:40:22;;;;;;;;;;;23.90;99.90;;;;;;5052991;28;19913;-80
2022/10/22 07:42:49;;;;;;;;;;;23.90;99.90;;;;;;5050016;28;19924;-79
2022/10/22 07:45:16;;;;;;;;;;;23.80;99.90;;;;;;5037057;28;19925;-77
2022/10/22 07:47:42;;;;;;;;;;;23.70;99.90;;;;;;5034102;28;20015;-79
2022/10/22 07:50:09;;;;;;;;;;;23.70;99.90;;;;;;5038258;28;19955;-79
2022/10/22 07:52:36;;;;;;;;;;;23.60;99.90;;;;;;5050994;28;19958;-79
2022/10/22 07:55:02;;;;;;;;;;;23.60;99.90;;;;;;5052908;28;19909;-75
2022/10/22 07:57:29;;;;;;;;;;;23.50;99.90;;;;;;5043532;28;20299;-77
2022/10/22 07:59:57;;;;;;;;;;;23.50;99.90;;;;;;5051724;28;19958;-78
2022/10/22 08:02:26;;;;;;;;;;;23.40;99.90;;;;;;5049659;28;20009;-78
2022/10/22 08:04:55;;;;;;;;;;;23.40;99.90;;;;;;5052730;28;19924;-78
2022/10/22 08:07:22;;;;;;;;;;;23.30;99.90;;;;;;5045018;28;19964;-75
2022/10/22 08:09:49;;;;;;;;;;;23.30;99.90;;;;;;5050429;28;19909;-77
2022/10/22 08:12:16;;;;;;;;;;;23.20;99.90;;;;;;5050146;28;20390;-77
2022/10/22 08:14:43;;;;;;;;;;;23.20;99.90;;;;;;5051877;28;20336;-76
2022/10/22 08:17:09;;;;;;;;;;;23.20;99.90;;;;;;5045781;28;19913;-73
2022/10/22 08:19:36;;;;;;;;;;;23.20;99.90;;;;;;5051201;28;19959;-74
2022/10/22 08:22:03;;;;;;;;;;;23.20;99.90;;;;;;5046865;28;19917;-77
2022/10/22 08:24:30;;;;;;;;;;;23.20;99.90;;;;;;5032353;28;19963;-76
2022/10/22 08:26:56;;;;;;;;;;;23.10;99.90;;;;;;5047307;28;19936;-78
2022/10/22 08:29:25;;;;;;;;;;;23.10;99.90;;;;;;5045453;28;19970;-74
2022/10/22 08:31:52;;;;;;;;;;;23.10;99.90;;;;;;5048506;28;19924;-80
2022/10/22 08:34:19;;;;;;;;;;;23.10;99.90;;;;;;5040686;28;19923;-71
2022/10/22 08:36:46;;;;;;;;;;;23.10;99.90;;;;;;5049389;28;19913;-74
2022/10/22 08:39:13;;;;;;;;;;;23.10;99.90;;;;;;5049756;28;20379;-76
2022/10/22 08:41:47;;;;;;;;;;;23.10;99.90;;;;;;5050653;28;20651;-77
2022/10/22 08:44:32;;;;;;;;;;;23.10;99.90;;;;;;5052294;28;19921;-73
2022/10/22 08:47:10;;;;;;;;;;;23.10;99.90;;;;;;5047615;28;19913;-77
2022/10/22 08:49:38;;;;;;;;;;;23.10;99.90;;;;;;5045225;28;20370;-78
2022/10/22 08:52:05;;;;;;;;;;;23.10;99.90;;;;;;5046565;28;19948;-73
2022/10/22 08:54:46;;;;;;;;;;;23.10;99.90;;;;;;5032392;28;19909;-76
2022/10/22 08:57:21;;;;;;;;;;;23.00;99.90;;;;;;5035970;28;19927;-74
2022/10/22 08:59:53;;;;;;;;;;;23.00;99.90;;;;;;5051069;28;19920;-76
2022/10/22 09:02:29;;;;;;;;;;;22.90;99.90;;;;;;5043879;28;19917;-79
2022/10/22 09:05:02;;;;;;;;;;;22.90;99.90;;;;;;5042198;28;19920;-76
2022/10/22 09:07:28;;;;;;;;;;;22.90;99.90;;;;;;5042267;28;19913;-73
2022/10/22 09:09:59;;;;;;;;;;;22.90;99.90;;;;;;5031384;28;20240;-78
2022/10/22 09:12:26;;;;;;;;;;;22.80;99.90;;;;;;5032451;28;19917;-76
2022/10/22 09:14:53;;;;;;;;;;;22.80;99.90;;;;;;5034594;28;19916;-78
2022/10/22 09:17:35;;;;;;;;;;;22.80;99.90;;;;;;5043783;28;19912;-75
2022/10/22 09:20:08;;;;;;;;;;;22.70;99.90;;;;;;5050305;28;19917;-78
2022/10/22 09:22:35;;;;;;;;;;;22.70;99.90;;;;;;5042236;28;19917;-76
2022/10/22 09:25:10;;;;;;;;;;;22.70;99.90;;;;;;5049970;28;20299;-77
2022/10/22 09:27:37;;;;;;;;;;;22.60;99.90;;;;;;5041631;28;20397;-78
2022/10/22 09:30:04;;;;;;;;;;;22.60;99.90;;;;;;5031182;28;19960;-77
2022/10/22 09:32:31;;;;;;;;;;;22.50;99.90;;;;;;5032477;28;19924;-75
2022/10/22 09:34:58;;;;;;;;;;;22.50;99.90;;;;;;5050055;28;19919;-76
2022/10/22 09:37:26;;;;;;;;;;;22.50;99.90;;;;;;5047658;28;19917;-78
2022/10/22 09:39:53;;;;;;;;;;;22.40;99.90;;;;;;5031021;28;19917;-77
2022/10/22 09:42:20;;;;;;;;;;;22.30;99.90;;;;;;5032011;28;19913;-77
2022/10/22 09:44:54;;;;;;;;;;;22.30;99.90;;;;;;5032407;28;20360;-76
2022/10/22 09:47:27;;;;;;;;;;;22.30;99.90;;;;;;5043592;28;20557;-75
2022/10/22 09:50:12;;;;;;;;;;;22.20;99.90;;;;;;5048355;28;19993;-76
2022/10/22 09:52:39;;;;;;;;;;;22.20;99.90;;;;;;5043914;28;19917;-77
2022/10/22 09:55:32;;;;;;;;;;;22.20;99.90;;;;;;5047460;28;20441;-75
2022/10/22 09:57:59;;;;;;;;;;;22.10;99.90;;;;;;5041962;28;19916;-77
2022/10/22 10:00:27;;;;;;;;;;;22.10;99.90;;;;;;5042058;28;19939;-78
2022/10/22 10:02:57;;;;;;;;;;;22.10;99.90;;;;;;5042283;28;19921;-78
2022/10/22 10:05:29;;;;;;;;;;;22.10;99.90;;;;;;5044175;28;19929;-78
2022/10/22 10:07:57;;;;;;;;;;;22.00;99.90;;;;;;5053137;28;19982;-78
2022/10/22 10:10:28;;;;;;;;;;;22.00;99.90;;;;;;5054580;28;20002;-78
2022/10/22 10:13:02;;;;;;;;;;;21.90;99.90;;;;;;5042069;28;20390;-77
2022/10/22 10:15:40;;;;;;;;;;;21.90;99.90;;;;;;5045799;28;19918;-78
2022/10/22 10:18:06;;;;;;;;;;;21.90;99.90;;;;;;5043428;28;20454;-78
2022/10/22 10:20:37;;;;;;;;;;;21.80;99.90;;;;;;5053147;28;19943;-77
2022/10/22 10:23:04;;;;;;;;;;;21.80;99.90;;;;;;5040053;28;19917;-73
2022/10/22 10:25:49;;;;;;;;;;;21.70;99.90;;;;;;5048250;28;19932;-77
2022/10/22 10:28:22;;;;;;;;;;;21.60;99.90;;;;;;5040224;28;19917;-77
2022/10/22 10:31:04;;;;;;;;;;;21.60;99.90;;;;;;5054133;28;20286;-78
2022/10/22 10:33:48;;;;;;;;;;;21.60;99.90;;;;;;5036748;28;20029;-78
2022/10/22 10:36:32;;;;;;;;;;;21.60;99.90;;;;;;5034028;28;19921;-79
2022/10/22 10:39:12;;;;;;;;;;;21.60;99.90;;;;;;5045500;28;20333;-78
2022/10/22 10:41:44;;;;;;;;;;;21.60;99.90;;;;;;5044026;28;19908;-76
2022/10/22 10:44:29;;;;;;;;;;;21.50;99.90;;;;;;5034110;28;19925;-77
2022/10/22 10:47:14;;;;;;;;;;;21.50;99.90;;;;;;5034518;28;19983;-79
2022/10/22 10:49:42;;;;;;;;;;;21.50;99.90;;;;;;5053465;28;19920;-78
2022/10/22 10:52:29;;;;;;;;;;;21.50;99.90;;;;;;5047437;28;19910;-77
2022/10/22 10:55:18;;;;;;;;;;;21.50;99.90;;;;;;5045760;28;20561;-78
2022/10/22 10:57:56;;;;;;;;;;;21.50;99.90;;;;;;5043846;28;19920;-76
2022/10/22 11:00:23;;;;;;;;;;;21.50;99.90;;;;;;5032586;28;19917;-78
2022/10/22 11:02:56;;;;;;;;;;;21.40;99.90;;;;;;5044256;28;19909;-79
2022/10/22 11:05:31;;;;;;;;;;;21.40;99.90;;;;;;5053105;28;19961;-78
2022/10/22 11:08:04;;;;;;;;;;;21.40;99.90;;;;;;5040251;28;19952;-78
2022/10/22 11:10:45;;;;;;;;;;;21.30;99.90;;;;;;5033775;28;19967;-78
2022/10/22 11:13:23;;;;;;;;;;;21.30;99.90;;;;;;5034261;28;19909;-77
2022/10/22 11:15:57;;;;;;;;;;;21.30;99.90;;;;;;5043127;28;19917;-78
2022/10/22 11:18:28;;;;;;;;;;;21.30;99.90;;;;;;5037552;28;20382;-78
2022/10/22 11:21:15;;;;;;;;;;;21.20;99.90;;;;;;5033252;28;19920;-79
2022/10/22 11:23:51;;;;;;;;;;;21.20;99.90;;;;;;5033340;28;20241;-76
2022/10/22 11:26:29;;;;;;;;;;;21.20;99.90;;;;;;5048076;28;19930;-76
2022/10/22 11:28:57;;;;;;;;;;;21.20;99.90;;;;;;5051346;28;20382;-74
2022/10/22 11:31:24;;;;;;;;;;;21.20;99.90;;;;;;5047047;28;20418;-77
2022/10/22 11:34:02;;;;;;;;;;;21.20;99.90;;;;;;5051004;28;19909;-72
2022/10/22 11:36:30;;;;;;;;;;;21.10;99.90;;;;;;5051430;28;19913;-72
2022/10/22 11:38:57;;;;;;;;;;;21.10;99.90;;;;;;5033582;28;19909;-72
2022/10/22 11:41:26;;;;;;;;;;;21.10;99.90;;;;;;5036373;28;19996;-74
2022/10/22 11:43:56;;;;;;;;;;;21.00;99.90;;;;;;5052086;28;20015;-72
2022/10/22 11:46:23;;;;;;;;;;;21.00;99.90;;;;;;5052293;28;19913;-72
2022/10/22 11:49:02;;;;;;;;;;;21.00;99.90;;;;;;5035025;28;19913;-73
2022/10/22 11:51:34;;;;;;;;;;;20.90;99.90;;;;;;5051676;28;20425;-72
2022/10/22 11:54:02;;;;;;;;;;;20.90;99.90;;;;;;5039670;28;19916;-74
2022/10/22 11:56:36;;;;;;;;;;;20.90;99.90;;;;;;5051936;28;19913;-73
2022/10/22 11:59:03;;;;;;;;;;;20.90;99.90;;;;;;5037094;28;19920;-73
2022/10/22 12:01:40;;;;;;;;;;;20.90;99.90;;;;;;5050671;28;19912;-74
2022/10/22 12:04:17;;;;;;;;;;;20.90;99.90;;;;;;5039328;28;19928;-72
2022/10/22 12:06:58;;;;;;;;;;;20.90;99.90;;;;;;5049537;28;19921;-74
2022/10/22 12:09:28;;;;;;;;;;;20.90;99.90;;;;;;5032324;28;19913;-72
2022/10/22 12:12:01;;;;;;;;;;;20.80;99.90;;;;;;5037574;28;20447;-73
2022/10/22 12:14:40;;;;;;;;;;;20.80;99.90;;;;;;5041050;28;20291;-73
2022/10/22 12:17:07;;;;;;;;;;;20.80;99.90;;;;;;5045658;28;20371;-71
2022/10/22 12:19:38;;;;;;;;;;;20.80;99.90;;;;;;5032655;28;19920;-74
2022/10/22 12:22:08;;;;;;;;;;;20.70;99.90;;;;;;5032672;28;19913;-71
2022/10/22 12:24:36;;;;;;;;;;;20.70;99.90;;;;;;5047232;28;19946;-71
2022/10/22 12:27:03;;;;;;;;;;;20.70;99.90;;;;;;5047097;28;19921;-71
2022/10/22 12:29:31;;;;;;;;;;;20.70;99.90;;;;;;5050081;28;19916;-73
2022/10/22 12:32:01;;;;;;;;;;;20.60;99.90;;;;;;5047134;28;20359;-73
2022/10/22 12:34:28;;;;;;;;;;;20.60;99.90;;;;;;5040510;28;19912;-71
2022/10/22 12:36:55;;;;;;;;;;;20.60;99.90;;;;;;5050129;28;19952;-70
2022/10/22 12:39:24;;;;;;;;;;;20.50;99.90;;;;;;5051818;28;19948;-73
2022/10/22 12:41:52;;;;;;;;;;;20.50;99.90;;;;;;5047881;28;19912;-71
2022/10/22 12:44:18;;;;;;;;;;;20.50;99.90;;;;;;5044612;28;19959;-72
2022/10/22 12:46:46;;;;;;;;;;;20.40;99.90;;;;;;5049249;28;19912;-75
2022/10/22 12:49:16;;;;;;;;;;;20.40;99.90;;;;;;5036850;28;19921;-75
2022/10/22 12:51:43;;;;;;;;;;;20.40;99.90;;;;;;5049213;28;20011;-72
2022/10/22 12:54:14;;;;;;;;;;;20.30;99.90;;;;;;5031535;28;19916;-73
2022/10/22 12:56:41;;;;;;;;;;;20.30;99.90;;;;;;5030909;28;19921;-72
2022/10/22 12:59:27;;;;;;;;;;;20.30;99.90;;;;;;5031089;28;20373;-73
2022/10/22 13:01:55;;;;;;;;;;;20.30;99.90;;;;;;5040824;28;19921;-74
2022/10/22 13:04:32;;;;;;;;;;;20.30;99.90;;;;;;5032017;28;19913;-72
2022/10/22 13:07:11;;;;;;;;;;;20.30;99.90;;;;;;5048361;28;20020;-72
2022/10/22 13:09:39;;;;;;;;;;;20.30;99.90;;;;;;5050589;28;19913;-71
2022/10/22 13:12:06;;;;;;;;;;;20.30;99.90;;;;;;5045801;28;19982;-70
2022/10/22 13:14:34;;;;;;;;;;;20.20;99.90;;;;;;5040804;28;19913;-70
2022/10/22 13:17:04;;;;;;;;;;;20.20;99.90;;;;;;5042896;28;19951;-72
2022/10/22 13:19:43;;;;;;;;;;;20.20;99.90;;;;;;5035358;28;19920;-73
2022/10/22 13:22:28;;;;;;;;;;;20.10;99.90;;;;;;5023719;28;20035;-73
2022/10/22 13:24:58;;;;;;;;;;;20.10;99.90;;;;;;5043147;28;20390;-71
2022/10/22 13:27:26;;;;;;;;;;;20.20;99.90;;;;;;5052159;28;20448;-72
2022/10/22 13:29:53;;;;;;;;;;;20.10;99.90;;;;;;5055680;28;20263;-73
2022/10/22 13:32:33;;;;;;;;;;;20.10;99.90;;;;;;5048414;28;19915;-72
2022/10/22 13:35:00;;;;;;;;;;;20.10;99.90;;;;;;5035940;28;19913;-70
2022/10/22 13:37:28;;;;;;;;;;;20.00;99.90;;;;;;5050843;28;19914;-72
2022/10/22 13:39:55;;;;;;;;;;;20.00;99.90;;;;;;5054488;28;19913;-71
2022/10/22 13:42:21;;;;;;;;;;;20.00;99.90;;;;;;5048000;28;19917;-72
2022/10/22 13:44:48;;;;;;;;;;;20.00;99.90;;;;;;5036884;28;19984;-73
2022/10/22 13:47:25;;;;;;;;;;;19.90;99.90;;;;;;5051293;28;19913;-72
2022/10/22 13:49:53;;;;;;;;;;;19.90;99.90;;;;;;5055294;28;19960;-73
2022/10/22 13:52:26;;;;;;;;;;;19.90;99.90;;;;;;5047717;28;19939;-70
2022/10/22 13:54:53;;;;;;;;;;;19.90;99.90;;;;;;5035729;28;20360;-71
2022/10/22 13:57:19;;;;;;;;;;;19.90;99.90;;;;;;5049231;28;19913;-71
2022/10/22 13:59:46;;;;;;;;;;;19.80;99.90;;;;;;5054222;28;19948;-72
2022/10/22 14:02:13;;;;;;;;;;;19.80;99.90;;;;;;5048591;28;20407;-71
2022/10/22 14:04:42;;;;;;;;;;;19.80;99.90;;;;;;5045141;28;20325;-71
2022/10/22 14:07:12;;;;;;;;;;;19.80;99.90;;;;;;5048907;28;19913;-71
2022/10/22 14:09:39;;;;;;;;;;;19.80;99.90;;;;;;5054234;28;19913;-76
2022/10/22 14:12:16;;;;;;;;;;;19.80;99.90;;;;;;5049603;28;19963;-73
2022/10/22 14:14:42;;;;;;;;;;;19.80;99.90;;;;;;5054133;28;19986;-72
2022/10/22 14:17:16;;;;;;;;;;;19.80;99.90;;;;;;5049821;28;19913;-71
2022/10/22 14:19:44;;;;;;;;;;;19.80;99.90;;;;;;5055144;28;20371;-72
2022/10/22 14:22:17;;;;;;;;;;;19.80;99.90;;;;;;5052897;28;20282;-71
2022/10/22 14:24:44;;;;;;;;;;;19.80;99.90;;;;;;5052743;28;19987;-72
2022/10/22 14:27:12;;;;;;;;;;;19.80;99.90;;;;;;5048519;28;19913;-72
2022/10/22 14:29:41;;;;;;;;;;;19.80;99.90;;;;;;5034607;28;20175;-72